sensor_id;sensor_type;location;lat;lon;timestamp;P1;durP1;ratioP1;P2;durP2;ratioP2
59970;SDS011;45825;45.434;9.116;2024-02-21T00:00:23;129.60;;;81.15;;
59970;SDS011;45825;45.434;9.116;2024-02-21T00:02:48;132.10;;;80.78;;
59970;SDS011;45825;45.434;9.116;2024-02-21T00:05:13;132.25;;;82.28;;
59970;SDS011;45825;45.434;9.116;2024-02-21T00:07:38;126.68;;;81.72;;
59970;SDS011;45825;45.434;9.116;2024-02-21T00:10:04;126.28;;;81.63;;
59970;SDS011;45825;45.434;9.116;2024-02-21T00:12:30;129.50;;;82.30;;
59970;SDS011;45825;45.434;9.116;2024-02-21T00:14:55;123.70;;;82.57;;
59970;SDS011;45825;45.434;9.116;2024-02-21T00:17:20;126.57;;;80.00;;
59970;SDS011;45825;45.434;9.116;2024-02-21T00:19:46;128.60;;;81.75;;
59970;SDS011;45825;45.434;9.116;2024-02-21T00:22:11;127.28;;;80.75;;
59970;SDS011;45825;45.434;9.116;2024-02-21T00:24:36;128.57;;;82.40;;
59970;SDS011;45825;45.434;9.116;2024-02-21T00:27:02;127.97;;;81.32;;
59970;SDS011;45825;45.434;9.116;2024-02-21T00:29:27;127.80;;;81.28;;
59970;SDS011;45825;45.434;9.116;2024-02-21T00:31:52;135.93;;;84.32;;
59970;SDS011;45825;45.434;9.116;2024-02-21T00:34:18;129.82;;;82.18;;
59970;SDS011;45825;45.434;9.116;2024-02-21T00:36:44;128.35;;;81.60;;
59970;SDS011;45825;45.434;9.116;2024-02-21T00:39:09;124.30;;;81.63;;
59970;SDS011;45825;45.434;9.116;2024-02-21T00:41:35;127.95;;;82.00;;
59970;SDS011;45825;45.434;9.116;2024-02-21T00:44:00;135.25;;;82.68;;
59970;SDS011;45825;45.434;9.116;2024-02-21T00:46:25;128.75;;;81.97;;
59970;SDS011;45825;45.434;9.116;2024-02-21T00:48:51;126.82;;;81.57;;
59970;SDS011;45825;45.434;9.116;2024-02-21T00:51:16;132.15;;;82.55;;
59970;SDS011;45825;45.434;9.116;2024-02-21T00:53:42;133.88;;;81.85;;
59970;SDS011;45825;45.434;9.116;2024-02-21T00:56:07;129.18;;;82.82;;
59970;SDS011;45825;45.434;9.116;2024-02-21T00:58:33;128.05;;;81.50;;
59970;SDS011;45825;45.434;9.116;2024-02-21T01:00:58;130.95;;;80.13;;
59970;SDS011;45825;45.434;9.116;2024-02-21T01:03:25;129.35;;;81.55;;
59970;SDS011;45825;45.434;9.116;2024-02-21T01:05:50;134.88;;;83.93;;
59970;SDS011;45825;45.434;9.116;2024-02-21T01:08:15;128.75;;;83.10;;
59970;SDS011;45825;45.434;9.116;2024-02-21T01:10:41;131.98;;;82.45;;
59970;SDS011;45825;45.434;9.116;2024-02-21T01:13:06;128.70;;;81.32;;
59970;SDS011;45825;45.434;9.116;2024-02-21T01:15:32;127.32;;;81.07;;
59970;SDS011;45825;45.434;9.116;2024-02-21T01:17:57;133.38;;;83.50;;
59970;SDS011;45825;45.434;9.116;2024-02-21T01:20:22;131.60;;;81.63;;
59970;SDS011;45825;45.434;9.116;2024-02-21T01:22:48;130.32;;;82.28;;
59970;SDS011;45825;45.434;9.116;2024-02-21T01:25:13;130.80;;;81.82;;
59970;SDS011;45825;45.434;9.116;2024-02-21T01:27:38;124.53;;;82.05;;
59970;SDS011;45825;45.434;9.116;2024-02-21T01:30:04;129.18;;;79.15;;
59970;SDS011;45825;45.434;9.116;2024-02-21T01:32:30;123.80;;;80.10;;
59970;SDS011;45825;45.434;9.116;2024-02-21T01:34:56;131.93;;;79.88;;
59970;SDS011;45825;45.434;9.116;2024-02-21T01:37:21;128.68;;;78.75;;
59970;SDS011;45825;45.434;9.116;2024-02-21T01:39:46;126.63;;;80.10;;
59970;SDS011;45825;45.434;9.116;2024-02-21T01:42:11;123.88;;;78.78;;
59970;SDS011;45825;45.434;9.116;2024-02-21T01:44:37;122.75;;;79.40;;
59970;SDS011;45825;45.434;9.116;2024-02-21T01:47:03;127.00;;;80.15;;
59970;SDS011;45825;45.434;9.116;2024-02-21T01:49:28;128.07;;;79.95;;
59970;SDS011;45825;45.434;9.116;2024-02-21T01:51:55;126.30;;;80.20;;
59970;SDS011;45825;45.434;9.116;2024-02-21T01:54:20;125.82;;;78.93;;
59970;SDS011;45825;45.434;9.116;2024-02-21T01:56:46;126.22;;;79.40;;
59970;SDS011;45825;45.434;9.116;2024-02-21T01:59:13;130.55;;;79.82;;
59970;SDS011;45825;45.434;9.116;2024-02-21T02:01:40;133.07;;;81.70;;
59970;SDS011;45825;45.434;9.116;2024-02-21T02:04:06;126.53;;;77.28;;
59970;SDS011;45825;45.434;9.116;2024-02-21T02:06:32;118.70;;;75.15;;
59970;SDS011;45825;45.434;9.116;2024-02-21T02:08:57;116.63;;;76.57;;
59970;SDS011;45825;45.434;9.116;2024-02-21T02:11:23;126.95;;;78.13;;
59970;SDS011;45825;45.434;9.116;2024-02-21T02:13:48;125.50;;;81.05;;
59970;SDS011;45825;45.434;9.116;2024-02-21T02:16:14;126.88;;;78.78;;
59970;SDS011;45825;45.434;9.116;2024-02-21T02:18:39;128.52;;;79.03;;
59970;SDS011;45825;45.434;9.116;2024-02-21T02:21:05;129.35;;;79.30;;
59970;SDS011;45825;45.434;9.116;2024-02-21T02:23:38;121.78;;;77.53;;
59970;SDS011;45825;45.434;9.116;2024-02-21T02:26:06;122.32;;;77.10;;
59970;SDS011;45825;45.434;9.116;2024-02-21T02:28:32;119.05;;;74.70;;
59970;SDS011;45825;45.434;9.116;2024-02-21T02:30:57;123.75;;;76.68;;
59970;SDS011;45825;45.434;9.116;2024-02-21T02:33:23;123.20;;;75.65;;
59970;SDS011;45825;45.434;9.116;2024-02-21T02:35:48;124.55;;;76.25;;
59970;SDS011;45825;45.434;9.116;2024-02-21T02:38:14;126.72;;;77.30;;
59970;SDS011;45825;45.434;9.116;2024-02-21T02:40:40;121.47;;;75.85;;
59970;SDS011;45825;45.434;9.116;2024-02-21T02:43:06;128.25;;;77.30;;
59970;SDS011;45825;45.434;9.116;2024-02-21T02:45:31;121.25;;;77.15;;
59970;SDS011;45825;45.434;9.116;2024-02-21T02:47:57;122.55;;;75.57;;
59970;SDS011;45825;45.434;9.116;2024-02-21T02:50:23;119.78;;;73.50;;
59970;SDS011;45825;45.434;9.116;2024-02-21T02:52:49;121.43;;;76.82;;
59970;SDS011;45825;45.434;9.116;2024-02-21T02:55:14;121.43;;;75.22;;
59970;SDS011;45825;45.434;9.116;2024-02-21T02:57:39;124.68;;;76.43;;
59970;SDS011;45825;45.434;9.116;2024-02-21T03:00:07;125.00;;;75.50;;
59970;SDS011;45825;45.434;9.116;2024-02-21T03:02:32;117.18;;;73.10;;
59970;SDS011;45825;45.434;9.116;2024-02-21T03:04:58;122.80;;;76.82;;
59970;SDS011;45825;45.434;9.116;2024-02-21T03:07:24;115.68;;;73.97;;
59970;SDS011;45825;45.434;9.116;2024-02-21T03:09:50;120.65;;;74.10;;
59970;SDS011;45825;45.434;9.116;2024-02-21T03:12:15;125.38;;;76.00;;
59970;SDS011;45825;45.434;9.116;2024-02-21T03:14:49;120.85;;;73.80;;
59970;SDS011;45825;45.434;9.116;2024-02-21T03:17:17;119.47;;;73.43;;
59970;SDS011;45825;45.434;9.116;2024-02-21T03:19:42;121.13;;;74.90;;
59970;SDS011;45825;45.434;9.116;2024-02-21T03:22:07;126.07;;;74.13;;
59970;SDS011;45825;45.434;9.116;2024-02-21T03:24:33;112.32;;;71.97;;
59970;SDS011;45825;45.434;9.116;2024-02-21T03:26:58;119.28;;;73.30;;
59970;SDS011;45825;45.434;9.116;2024-02-21T03:29:24;115.05;;;71.90;;
59970;SDS011;45825;45.434;9.116;2024-02-21T03:31:50;114.75;;;71.38;;
59970;SDS011;45825;45.434;9.116;2024-02-21T03:34:15;115.40;;;70.93;;
59970;SDS011;45825;45.434;9.116;2024-02-21T03:36:40;112.93;;;70.72;;
59970;SDS011;45825;45.434;9.116;2024-02-21T03:39:05;115.45;;;72.10;;
59970;SDS011;45825;45.434;9.116;2024-02-21T03:41:33;112.88;;;69.00;;
59970;SDS011;45825;45.434;9.116;2024-02-21T03:43:58;119.57;;;71.68;;
59970;SDS011;45825;45.434;9.116;2024-02-21T03:46:24;117.30;;;71.82;;
59970;SDS011;45825;45.434;9.116;2024-02-21T03:48:50;117.90;;;72.53;;
59970;SDS011;45825;45.434;9.116;2024-02-21T03:51:15;117.68;;;72.30;;
59970;SDS011;45825;45.434;9.116;2024-02-21T03:53:40;115.25;;;69.88;;
59970;SDS011;45825;45.434;9.116;2024-02-21T03:56:06;111.10;;;69.60;;
59970;SDS011;45825;45.434;9.116;2024-02-21T03:58:32;115.40;;;70.55;;
59970;SDS011;45825;45.434;9.116;2024-02-21T04:00:59;114.72;;;69.78;;
59970;SDS011;45825;45.434;9.116;2024-02-21T04:03:26;114.65;;;68.63;;
59970;SDS011;45825;45.434;9.116;2024-02-21T04:05:51;118.25;;;71.90;;
59970;SDS011;45825;45.434;9.116;2024-02-21T04:08:17;112.38;;;69.40;;
59970;SDS011;45825;45.434;9.116;2024-02-21T04:10:42;110.78;;;67.53;;
59970;SDS011;45825;45.434;9.116;2024-02-21T04:13:07;108.43;;;69.03;;
59970;SDS011;45825;45.434;9.116;2024-02-21T04:15:33;107.82;;;66.95;;
59970;SDS011;45825;45.434;9.116;2024-02-21T04:18:00;108.20;;;65.93;;
59970;SDS011;45825;45.434;9.116;2024-02-21T04:20:25;101.68;;;63.60;;
59970;SDS011;45825;45.434;9.116;2024-02-21T04:22:51;110.22;;;67.47;;
59970;SDS011;45825;45.434;9.116;2024-02-21T04:25:16;104.93;;;65.93;;
59970;SDS011;45825;45.434;9.116;2024-02-21T04:27:42;104.60;;;65.57;;
59970;SDS011;45825;45.434;9.116;2024-02-21T04:30:07;104.20;;;64.75;;
59970;SDS011;45825;45.434;9.116;2024-02-21T04:32:33;109.90;;;65.65;;
59970;SDS011;45825;45.434;9.116;2024-02-21T04:34:58;104.43;;;65.35;;
59970;SDS011;45825;45.434;9.116;2024-02-21T04:37:23;106.70;;;64.93;;
59970;SDS011;45825;45.434;9.116;2024-02-21T04:39:49;108.30;;;66.30;;
59970;SDS011;45825;45.434;9.116;2024-02-21T04:42:15;97.03;;;63.42;;
59970;SDS011;45825;45.434;9.116;2024-02-21T04:44:40;105.18;;;65.63;;
59970;SDS011;45825;45.434;9.116;2024-02-21T04:47:06;100.65;;;62.33;;
59970;SDS011;45825;45.434;9.116;2024-02-21T04:49:32;109.03;;;67.22;;
59970;SDS011;45825;45.434;9.116;2024-02-21T04:51:58;100.25;;;62.03;;
59970;SDS011;45825;45.434;9.116;2024-02-21T04:54:23;99.55;;;62.05;;
59970;SDS011;45825;45.434;9.116;2024-02-21T04:56:48;98.35;;;62.55;;
59970;SDS011;45825;45.434;9.116;2024-02-21T04:59:14;104.78;;;63.92;;
59970;SDS011;45825;45.434;9.116;2024-02-21T05:01:39;104.13;;;63.10;;
59970;SDS011;45825;45.434;9.116;2024-02-21T05:04:05;101.50;;;63.60;;
59970;SDS011;45825;45.434;9.116;2024-02-21T05:06:31;106.10;;;62.25;;
59970;SDS011;45825;45.434;9.116;2024-02-21T05:08:56;98.53;;;61.22;;
59970;SDS011;45825;45.434;9.116;2024-02-21T05:11:22;94.68;;;58.95;;
59970;SDS011;45825;45.434;9.116;2024-02-21T05:13:48;95.20;;;59.90;;
59970;SDS011;45825;45.434;9.116;2024-02-21T05:16:13;99.18;;;59.42;;
59970;SDS011;45825;45.434;9.116;2024-02-21T05:18:40;105.13;;;60.60;;
59970;SDS011;45825;45.434;9.116;2024-02-21T05:21:05;93.93;;;59.92;;
59970;SDS011;45825;45.434;9.116;2024-02-21T05:23:30;109.93;;;67.13;;
59970;SDS011;45825;45.434;9.116;2024-02-21T05:25:56;105.60;;;63.65;;
59970;SDS011;45825;45.434;9.116;2024-02-21T05:28:21;100.72;;;62.25;;
59970;SDS011;45825;45.434;9.116;2024-02-21T05:30:46;95.90;;;59.13;;
59970;SDS011;45825;45.434;9.116;2024-02-21T05:33:12;97.90;;;59.58;;
59970;SDS011;45825;45.434;9.116;2024-02-21T05:35:37;95.38;;;57.60;;
59970;SDS011;45825;45.434;9.116;2024-02-21T05:38:03;93.40;;;57.55;;
59970;SDS011;45825;45.434;9.116;2024-02-21T05:40:36;84.10;;;54.50;;
59970;SDS011;45825;45.434;9.116;2024-02-21T05:43:01;87.95;;;53.85;;
59970;SDS011;45825;45.434;9.116;2024-02-21T05:45:27;92.75;;;57.40;;
59970;SDS011;45825;45.434;9.116;2024-02-21T05:47:52;91.60;;;56.45;;
59970;SDS011;45825;45.434;9.116;2024-02-21T05:50:17;92.43;;;56.35;;
59970;SDS011;45825;45.434;9.116;2024-02-21T05:52:43;88.20;;;54.88;;
59970;SDS011;45825;45.434;9.116;2024-02-21T05:55:08;95.10;;;55.63;;
59970;SDS011;45825;45.434;9.116;2024-02-21T05:57:36;93.78;;;55.90;;
59970;SDS011;45825;45.434;9.116;2024-02-21T06:00:05;91.57;;;54.20;;
59970;SDS011;45825;45.434;9.116;2024-02-21T06:02:31;89.63;;;54.92;;
59970;SDS011;45825;45.434;9.116;2024-02-21T06:04:56;85.85;;;53.85;;
59970;SDS011;45825;45.434;9.116;2024-02-21T06:07:21;88.43;;;53.17;;
59970;SDS011;45825;45.434;9.116;2024-02-21T06:09:47;86.00;;;52.72;;
59970;SDS011;45825;45.434;9.116;2024-02-21T06:12:12;83.03;;;52.67;;
59970;SDS011;45825;45.434;9.116;2024-02-21T06:14:37;81.07;;;51.80;;
59970;SDS011;45825;45.434;9.116;2024-02-21T06:17:03;76.93;;;49.65;;
59970;SDS011;45825;45.434;9.116;2024-02-21T06:19:28;69.43;;;44.90;;
59970;SDS011;45825;45.434;9.116;2024-02-21T06:21:53;64.32;;;41.05;;
59970;SDS011;45825;45.434;9.116;2024-02-21T06:24:19;61.83;;;38.70;;
59970;SDS011;45825;45.434;9.116;2024-02-21T06:26:44;57.60;;;36.70;;
59970;SDS011;45825;45.434;9.116;2024-02-21T06:29:10;58.15;;;34.92;;
59970;SDS011;45825;45.434;9.116;2024-02-21T06:31:36;53.85;;;34.00;;
59970;SDS011;45825;45.434;9.116;2024-02-21T06:34:01;59.38;;;36.42;;
59970;SDS011;45825;45.434;9.116;2024-02-21T06:36:27;53.97;;;34.33;;
59970;SDS011;45825;45.434;9.116;2024-02-21T06:38:52;54.95;;;33.70;;
59970;SDS011;45825;45.434;9.116;2024-02-21T06:41:18;53.67;;;34.53;;
59970;SDS011;45825;45.434;9.116;2024-02-21T06:43:47;53.63;;;34.38;;
59970;SDS011;45825;45.434;9.116;2024-02-21T06:46:22;52.58;;;33.08;;
59970;SDS011;45825;45.434;9.116;2024-02-21T06:48:48;53.00;;;32.10;;
59970;SDS011;45825;45.434;9.116;2024-02-21T06:51:13;53.30;;;33.53;;
59970;SDS011;45825;45.434;9.116;2024-02-21T06:53:39;53.42;;;33.97;;
59970;SDS011;45825;45.434;9.116;2024-02-21T06:56:05;53.10;;;31.73;;
59970;SDS011;45825;45.434;9.116;2024-02-21T06:58:30;53.25;;;32.92;;
59970;SDS011;45825;45.434;9.116;2024-02-21T07:00:56;52.80;;;32.80;;
59970;SDS011;45825;45.434;9.116;2024-02-21T07:03:21;55.33;;;34.20;;
59970;SDS011;45825;45.434;9.116;2024-02-21T07:05:46;50.67;;;32.65;;
59970;SDS011;45825;45.434;9.116;2024-02-21T07:08:12;60.15;;;33.80;;
59970;SDS011;45825;45.434;9.116;2024-02-21T07:10:37;52.38;;;32.60;;
59970;SDS011;45825;45.434;9.116;2024-02-21T07:13:02;53.22;;;32.55;;
59970;SDS011;45825;45.434;9.116;2024-02-21T07:15:28;53.85;;;34.80;;
59970;SDS011;45825;45.434;9.116;2024-02-21T07:17:55;48.97;;;33.10;;
59970;SDS011;45825;45.434;9.116;2024-02-21T07:20:21;52.83;;;31.75;;
59970;SDS011;45825;45.434;9.116;2024-02-21T07:22:46;50.25;;;33.35;;
59970;SDS011;45825;45.434;9.116;2024-02-21T07:25:11;53.40;;;33.38;;
59970;SDS011;45825;45.434;9.116;2024-02-21T07:27:37;50.90;;;33.90;;
59970;SDS011;45825;45.434;9.116;2024-02-21T07:30:02;52.13;;;33.72;;
59970;SDS011;45825;45.434;9.116;2024-02-21T07:32:28;58.55;;;35.05;;
59970;SDS011;45825;45.434;9.116;2024-02-21T07:34:53;52.67;;;34.38;;
59970;SDS011;45825;45.434;9.116;2024-02-21T07:37:19;49.63;;;33.22;;
59970;SDS011;45825;45.434;9.116;2024-02-21T07:39:44;53.47;;;33.80;;
59970;SDS011;45825;45.434;9.116;2024-02-21T07:42:09;52.60;;;31.48;;
59970;SDS011;45825;45.434;9.116;2024-02-21T07:44:35;57.33;;;33.70;;
59970;SDS011;45825;45.434;9.116;2024-02-21T07:47:00;56.30;;;33.67;;
59970;SDS011;45825;45.434;9.116;2024-02-21T07:49:26;56.08;;;34.25;;
59970;SDS011;45825;45.434;9.116;2024-02-21T07:51:51;61.05;;;36.75;;
59970;SDS011;45825;45.434;9.116;2024-02-21T07:54:17;58.20;;;36.45;;
59970;SDS011;45825;45.434;9.116;2024-02-21T07:56:43;57.08;;;36.97;;
59970;SDS011;45825;45.434;9.116;2024-02-21T07:59:08;60.03;;;37.42;;
59970;SDS011;45825;45.434;9.116;2024-02-21T08:01:33;60.80;;;36.35;;
59970;SDS011;45825;45.434;9.116;2024-02-21T08:03:59;60.55;;;38.72;;
59970;SDS011;45825;45.434;9.116;2024-02-21T08:06:24;68.32;;;39.30;;
59970;SDS011;45825;45.434;9.116;2024-02-21T08:08:49;59.75;;;38.42;;
59970;SDS011;45825;45.434;9.116;2024-02-21T08:11:15;56.75;;;36.63;;
59970;SDS011;45825;45.434;9.116;2024-02-21T08:13:40;62.85;;;38.35;;
59970;SDS011;45825;45.434;9.116;2024-02-21T08:16:05;61.83;;;37.95;;
59970;SDS011;45825;45.434;9.116;2024-02-21T08:18:31;61.05;;;38.90;;
59970;SDS011;45825;45.434;9.116;2024-02-21T08:20:56;65.93;;;39.47;;
59970;SDS011;45825;45.434;9.116;2024-02-21T08:23:23;60.03;;;38.40;;
59970;SDS011;45825;45.434;9.116;2024-02-21T08:25:49;62.75;;;38.33;;
59970;SDS011;45825;45.434;9.116;2024-02-21T08:28:14;60.63;;;38.90;;
59970;SDS011;45825;45.434;9.116;2024-02-21T08:30:40;62.78;;;38.70;;
59970;SDS011;45825;45.434;9.116;2024-02-21T08:33:09;60.88;;;39.72;;
59970;SDS011;45825;45.434;9.116;2024-02-21T08:35:34;58.50;;;38.20;;
59970;SDS011;45825;45.434;9.116;2024-02-21T08:38:00;60.75;;;38.25;;
59970;SDS011;45825;45.434;9.116;2024-02-21T08:40:25;63.83;;;39.58;;
59970;SDS011;45825;45.434;9.116;2024-02-21T08:42:50;65.90;;;39.67;;
59970;SDS011;45825;45.434;9.116;2024-02-21T08:45:16;62.40;;;39.40;;
59970;SDS011;45825;45.434;9.116;2024-02-21T08:47:41;61.55;;;37.90;;
59970;SDS011;45825;45.434;9.116;2024-02-21T08:50:07;60.10;;;38.88;;
59970;SDS011;45825;45.434;9.116;2024-02-21T08:52:34;59.70;;;35.85;;
59970;SDS011;45825;45.434;9.116;2024-02-21T08:55:00;59.83;;;36.15;;
59970;SDS011;45825;45.434;9.116;2024-02-21T08:57:25;59.42;;;36.90;;
59970;SDS011;45825;45.434;9.116;2024-02-21T08:59:50;59.42;;;37.63;;
59970;SDS011;45825;45.434;9.116;2024-02-21T09:02:16;59.45;;;37.58;;
59970;SDS011;45825;45.434;9.116;2024-02-21T09:04:41;58.50;;;37.53;;
59970;SDS011;45825;45.434;9.116;2024-02-21T09:07:07;61.08;;;38.47;;
59970;SDS011;45825;45.434;9.116;2024-02-21T09:09:32;57.53;;;37.95;;
59970;SDS011;45825;45.434;9.116;2024-02-21T09:11:58;59.47;;;37.53;;
59970;SDS011;45825;45.434;9.116;2024-02-21T09:14:30;61.33;;;37.05;;
59970;SDS011;45825;45.434;9.116;2024-02-21T09:16:56;67.25;;;42.17;;
59970;SDS011;45825;45.434;9.116;2024-02-21T09:19:21;55.97;;;36.67;;
59970;SDS011;45825;45.434;9.116;2024-02-21T09:21:46;53.60;;;34.05;;
59970;SDS011;45825;45.434;9.116;2024-02-21T09:24:11;56.53;;;34.45;;
59970;SDS011;45825;45.434;9.116;2024-02-21T09:26:37;50.20;;;32.22;;
59970;SDS011;45825;45.434;9.116;2024-02-21T09:29:02;49.97;;;31.70;;
59970;SDS011;45825;45.434;9.116;2024-02-21T09:31:28;49.17;;;31.80;;
59970;SDS011;45825;45.434;9.116;2024-02-21T09:33:54;50.38;;;31.70;;
59970;SDS011;45825;45.434;9.116;2024-02-21T09:36:19;46.80;;;30.58;;
59970;SDS011;45825;45.434;9.116;2024-02-21T09:38:46;48.85;;;32.72;;
59970;SDS011;45825;45.434;9.116;2024-02-21T09:41:15;46.17;;;30.20;;
59970;SDS011;45825;45.434;9.116;2024-02-21T09:43:48;46.30;;;29.25;;
59970;SDS011;45825;45.434;9.116;2024-02-21T09:46:18;46.40;;;29.70;;
59970;SDS011;45825;45.434;9.116;2024-02-21T09:51:21;47.75;;;30.02;;
59970;SDS011;45825;45.434;9.116;2024-02-21T09:53:47;44.13;;;29.35;;
59970;SDS011;45825;45.434;9.116;2024-02-21T09:56:13;42.67;;;27.20;;
59970;SDS011;45825;45.434;9.116;2024-02-21T09:58:39;43.90;;;28.58;;
59970;SDS011;45825;45.434;9.116;2024-02-21T10:01:06;42.08;;;26.77;;
59970;SDS011;45825;45.434;9.116;2024-02-21T10:03:32;45.72;;;28.05;;
59970;SDS011;45825;45.434;9.116;2024-02-21T10:05:58;45.95;;;28.02;;
59970;SDS011;45825;45.434;9.116;2024-02-21T10:08:25;41.70;;;27.38;;
59970;SDS011;45825;45.434;9.116;2024-02-21T10:10:52;40.80;;;24.90;;
59970;SDS011;45825;45.434;9.116;2024-02-21T10:13:27;39.97;;;25.23;;
59970;SDS011;45825;45.434;9.116;2024-02-21T10:16:06;40.60;;;26.35;;
59970;SDS011;45825;45.434;9.116;2024-02-21T10:18:33;38.63;;;23.95;;
59970;SDS011;45825;45.434;9.116;2024-02-21T10:23:28;42.47;;;27.50;;
59970;SDS011;45825;45.434;9.116;2024-02-21T10:25:54;42.20;;;28.63;;
59970;SDS011;45825;45.434;9.116;2024-02-21T10:28:19;44.83;;;28.42;;
59970;SDS011;45825;45.434;9.116;2024-02-21T10:30:51;48.17;;;30.05;;
59970;SDS011;45825;45.434;9.116;2024-02-21T10:33:17;44.92;;;28.75;;
59970;SDS011;45825;45.434;9.116;2024-02-21T10:35:45;47.92;;;30.33;;
59970;SDS011;45825;45.434;9.116;2024-02-21T10:38:11;44.13;;;28.05;;
59970;SDS011;45825;45.434;9.116;2024-02-21T10:40:37;46.15;;;29.20;;
59970;SDS011;45825;45.434;9.116;2024-02-21T10:43:02;47.55;;;32.40;;
59970;SDS011;45825;45.434;9.116;2024-02-21T10:45:35;47.95;;;32.45;;
59970;SDS011;45825;45.434;9.116;2024-02-21T10:48:03;47.03;;;31.52;;
59970;SDS011;45825;45.434;9.116;2024-02-21T10:50:36;48.17;;;31.40;;
59970;SDS011;45825;45.434;9.116;2024-02-21T10:53:24;49.47;;;33.80;;
59970;SDS011;45825;45.434;9.116;2024-02-21T10:55:56;50.85;;;34.50;;
59970;SDS011;45825;45.434;9.116;2024-02-21T10:58:26;52.13;;;35.10;;
59970;SDS011;45825;45.434;9.116;2024-02-21T11:00:55;48.70;;;33.83;;
59970;SDS011;45825;45.434;9.116;2024-02-21T11:03:20;50.22;;;34.15;;
59970;SDS011;45825;45.434;9.116;2024-02-21T11:05:46;48.70;;;32.47;;
59970;SDS011;45825;45.434;9.116;2024-02-21T11:08:12;49.88;;;34.42;;
59970;SDS011;45825;45.434;9.116;2024-02-21T11:10:38;52.95;;;36.08;;
59970;SDS011;45825;45.434;9.116;2024-02-21T11:13:09;53.50;;;36.63;;
59970;SDS011;45825;45.434;9.116;2024-02-21T11:15:34;59.67;;;36.38;;
59970;SDS011;45825;45.434;9.116;2024-02-21T11:18:00;51.63;;;36.88;;
59970;SDS011;45825;45.434;9.116;2024-02-21T11:20:37;51.58;;;36.72;;
59970;SDS011;45825;45.434;9.116;2024-02-21T11:23:03;54.03;;;36.53;;
59970;SDS011;45825;45.434;9.116;2024-02-21T11:25:29;53.85;;;37.83;;
59970;SDS011;45825;45.434;9.116;2024-02-21T11:28:07;56.58;;;41.53;;
59970;SDS011;45825;45.434;9.116;2024-02-21T11:30:35;59.70;;;42.28;;
59970;SDS011;45825;45.434;9.116;2024-02-21T11:33:06;61.17;;;42.83;;
59970;SDS011;45825;45.434;9.116;2024-02-21T11:35:32;61.72;;;45.25;;
59970;SDS011;45825;45.434;9.116;2024-02-21T11:38:11;62.67;;;44.13;;
59970;SDS011;45825;45.434;9.116;2024-02-21T11:40:41;63.05;;;45.17;;
59970;SDS011;45825;45.434;9.116;2024-02-21T11:43:08;65.43;;;44.67;;
59970;SDS011;45825;45.434;9.116;2024-02-21T11:45:33;68.28;;;48.22;;
59970;SDS011;45825;45.434;9.116;2024-02-21T11:47:59;65.88;;;46.50;;
59970;SDS011;45825;45.434;9.116;2024-02-21T11:50:30;60.30;;;45.20;;
59970;SDS011;45825;45.434;9.116;2024-02-21T11:52:56;62.40;;;45.17;;
59970;SDS011;45825;45.434;9.116;2024-02-21T11:55:22;62.83;;;46.88;;
59970;SDS011;45825;45.434;9.116;2024-02-21T11:57:48;61.40;;;48.10;;
59970;SDS011;45825;45.434;9.116;2024-02-21T12:00:16;65.22;;;48.53;;
59970;SDS011;45825;45.434;9.116;2024-02-21T12:02:45;61.05;;;46.95;;
59970;SDS011;45825;45.434;9.116;2024-02-21T12:05:10;59.42;;;44.72;;
59970;SDS011;45825;45.434;9.116;2024-02-21T12:07:36;62.63;;;44.28;;
59970;SDS011;45825;45.434;9.116;2024-02-21T12:10:06;59.05;;;45.88;;
59970;SDS011;45825;45.434;9.116;2024-02-21T12:12:35;62.35;;;47.70;;
59970;SDS011;45825;45.434;9.116;2024-02-21T12:15:02;62.22;;;45.78;;
59970;SDS011;45825;45.434;9.116;2024-02-21T12:17:39;59.58;;;45.97;;
59970;SDS011;45825;45.434;9.116;2024-02-21T12:20:05;60.85;;;45.15;;
59970;SDS011;45825;45.434;9.116;2024-02-21T12:22:34;63.08;;;47.80;;
59970;SDS011;45825;45.434;9.116;2024-02-21T12:25:02;58.45;;;43.90;;
59970;SDS011;45825;45.434;9.116;2024-02-21T12:27:29;62.78;;;47.63;;
59970;SDS011;45825;45.434;9.116;2024-02-21T12:29:54;64.72;;;47.88;;
59970;SDS011;45825;45.434;9.116;2024-02-21T12:32:20;64.22;;;46.00;;
59970;SDS011;45825;45.434;9.116;2024-02-21T12:34:45;60.60;;;46.72;;
59970;SDS011;45825;45.434;9.116;2024-02-21T12:37:10;62.78;;;48.40;;
59970;SDS011;45825;45.434;9.116;2024-02-21T12:39:38;63.00;;;46.72;;
59970;SDS011;45825;45.434;9.116;2024-02-21T12:42:03;62.08;;;45.70;;
59970;SDS011;45825;45.434;9.116;2024-02-21T12:44:29;64.32;;;45.50;;
59970;SDS011;45825;45.434;9.116;2024-02-21T12:46:54;65.18;;;46.20;;
59970;SDS011;45825;45.434;9.116;2024-02-21T12:49:19;60.95;;;46.55;;
59970;SDS011;45825;45.434;9.116;2024-02-21T12:51:45;62.95;;;45.78;;
59970;SDS011;45825;45.434;9.116;2024-02-21T12:54:13;64.53;;;47.90;;
59970;SDS011;45825;45.434;9.116;2024-02-21T12:56:38;66.70;;;47.53;;
59970;SDS011;45825;45.434;9.116;2024-02-21T12:59:05;62.72;;;47.03;;
59970;SDS011;45825;45.434;9.116;2024-02-21T13:01:32;63.65;;;46.67;;
59970;SDS011;45825;45.434;9.116;2024-02-21T13:03:57;63.28;;;48.40;;
59970;SDS011;45825;45.434;9.116;2024-02-21T13:06:25;61.83;;;47.92;;
59970;SDS011;45825;45.434;9.116;2024-02-21T13:08:50;62.50;;;47.50;;
59970;SDS011;45825;45.434;9.116;2024-02-21T13:11:15;62.70;;;48.40;;
59970;SDS011;45825;45.434;9.116;2024-02-21T13:13:41;59.60;;;46.97;;
59970;SDS011;45825;45.434;9.116;2024-02-21T13:16:06;62.28;;;47.47;;
59970;SDS011;45825;45.434;9.116;2024-02-21T13:18:32;61.55;;;48.20;;
59970;SDS011;45825;45.434;9.116;2024-02-21T13:20:57;64.55;;;48.13;;
59970;SDS011;45825;45.434;9.116;2024-02-21T13:23:23;65.30;;;50.28;;
59970;SDS011;45825;45.434;9.116;2024-02-21T13:25:48;60.65;;;47.03;;
59970;SDS011;45825;45.434;9.116;2024-02-21T13:28:14;59.80;;;46.38;;
59970;SDS011;45825;45.434;9.116;2024-02-21T13:30:41;60.90;;;46.38;;
59970;SDS011;45825;45.434;9.116;2024-02-21T13:33:07;65.22;;;47.40;;
59970;SDS011;45825;45.434;9.116;2024-02-21T13:35:32;60.40;;;47.45;;
59970;SDS011;45825;45.434;9.116;2024-02-21T13:37:57;63.88;;;47.85;;
59970;SDS011;45825;45.434;9.116;2024-02-21T13:40:23;64.13;;;49.00;;
59970;SDS011;45825;45.434;9.116;2024-02-21T13:42:48;61.80;;;47.10;;
59970;SDS011;45825;45.434;9.116;2024-02-21T13:45:16;61.30;;;47.30;;
59970;SDS011;45825;45.434;9.116;2024-02-21T13:47:41;60.80;;;46.83;;
59970;SDS011;45825;45.434;9.116;2024-02-21T13:50:07;62.20;;;47.65;;
59970;SDS011;45825;45.434;9.116;2024-02-21T13:52:39;64.00;;;46.72;;
59970;SDS011;45825;45.434;9.116;2024-02-21T13:55:05;64.13;;;48.10;;
59970;SDS011;45825;45.434;9.116;2024-02-21T13:57:33;60.65;;;46.80;;
59970;SDS011;45825;45.434;9.116;2024-02-21T13:59:59;63.28;;;47.72;;
59970;SDS011;45825;45.434;9.116;2024-02-21T14:02:25;60.15;;;46.72;;
59970;SDS011;45825;45.434;9.116;2024-02-21T14:04:50;70.38;;;47.13;;
59970;SDS011;45825;45.434;9.116;2024-02-21T14:07:15;64.45;;;47.83;;
59970;SDS011;45825;45.434;9.116;2024-02-21T14:09:42;60.20;;;47.72;;
59970;SDS011;45825;45.434;9.116;2024-02-21T14:12:07;58.70;;;48.08;;
59970;SDS011;45825;45.434;9.116;2024-02-21T14:14:33;61.38;;;47.35;;